Aviation Digital Data Service (ADDS)

Output produced by METARs form (0100 UTC 24 July 2016)
found at http://aviationweather.gov/adds/metars/
 
KAND 232335Z 2400/2424 27004KT P6SM FEW050 BKN250 
     FM240900 VRB02KT 5SM BR SCT250 
     FM241400 24004KT P6SM FEW050 SCT250 
     FM241700 23006KT P6SM SCT060